Time;durP1;ratioP1;P1;durP2;ratioP2;P2;SDS_P1;SDS_P2;PMS_P1;PMS_P2;Temp;Humidity;BMP_temperature;BMP_pressure;BME280_temperature;BME280_humidity;BME280_pressure;Samples;Min_cycle;Max_cycle;Signal;HPM_P1;HPM_P2
2024/03/03 00:00:06;;;;;;;25.85;12.05;;;3.00;99.90;;;;;;5062496;28;20048;-88
2024/03/03 00:02:31;;;;;;;25.92;13.80;;;3.00;99.90;;;;;;5064262;28;20033;-88
2024/03/03 00:04:57;;;;;;;28.13;13.57;;;3.00;99.90;;;;;;5064082;28;20054;-88
2024/03/03 00:07:22;;;;;;;26.42;13.80;;;3.00;99.90;;;;;;5063223;28;20029;-88
2024/03/03 00:09:48;;;;;;;26.70;14.30;;;3.00;99.90;;;;;;5064221;28;20405;-87
2024/03/03 00:12:14;;;;;;;26.23;14.20;;;3.00;99.90;;;;;;5064960;28;20465;-87
2024/03/03 00:14:39;;;;;;;29.92;14.73;;;3.00;99.90;;;;;;5066859;28;20044;-88
2024/03/03 00:17:05;;;;;;;26.80;13.55;;;2.90;99.90;;;;;;5073226;28;20024;-88
2024/03/03 00:19:31;;;;;;;27.08;13.90;;;2.90;99.90;;;;;;5073320;28;20051;-87
2024/03/03 00:21:56;;;;;;;26.85;13.77;;;3.00;99.90;;;;;;5074505;28;20032;-88
2024/03/03 00:24:22;;;;;;;25.05;14.10;;;2.90;99.90;;;;;;5073003;28;20470;-88
2024/03/03 00:26:48;;;;;;;23.77;12.20;;;2.90;99.90;;;;;;5073095;28;20029;-88
2024/03/03 00:29:14;;;;;;;22.50;12.10;;;2.90;99.90;;;;;;5073045;28;20016;-88
2024/03/03 00:31:43;;;;;;;24.52;12.68;;;2.90;99.90;;;;;;5072876;28;20029;-88
2024/03/03 00:34:09;;;;;;;23.65;12.88;;;2.90;99.90;;;;;;5072962;28;20032;-85
2024/03/03 00:36:35;;;;;;;25.90;13.07;;;3.00;99.90;;;;;;5074382;28;20044;-88
2024/03/03 00:39:01;;;;;;;21.88;12.00;;;3.00;99.90;;;;;;5073918;28;20501;-87
2024/03/03 00:41:27;;;;;;;21.13;11.05;;;3.00;99.90;;;;;;5072384;28;20590;-87
2024/03/03 00:43:53;;;;;;;23.50;12.10;;;3.00;99.90;;;;;;5072528;28;20017;-87
2024/03/03 00:46:18;;;;;;;19.23;10.68;;;3.00;99.90;;;;;;5072707;28;20031;-88
2024/03/03 00:48:44;;;;;;;19.13;10.57;;;3.00;99.90;;;;;;5072643;28;20052;-88
2024/03/03 00:51:09;;;;;;;19.67;10.13;;;3.10;99.90;;;;;;5072340;28;20032;-87
2024/03/03 00:53:35;;;;;;;15.52;8.90;;;3.10;99.90;;;;;;5072559;28;20050;-88
2024/03/03 00:56:01;;;;;;;20.85;10.48;;;3.10;99.90;;;;;;5072302;28;20016;-88
2024/03/03 00:58:27;;;;;;;22.80;11.00;;;3.10;99.90;;;;;;5072326;28;20024;-88
2024/03/03 01:00:52;;;;;;;19.73;10.68;;;3.10;99.90;;;;;;5073355;28;20035;-87
2024/03/03 01:03:19;;;;;;;18.88;10.77;;;3.10;99.90;;;;;;5072467;28;20070;-88
2024/03/03 01:05:44;;;;;;;21.67;11.55;;;3.10;99.90;;;;;;5072216;28;20043;-87
2024/03/03 01:08:10;;;;;;;18.95;10.60;;;3.10;99.90;;;;;;5072260;28;20033;-87
2024/03/03 01:10:36;;;;;;;19.00;10.60;;;3.10;99.90;;;;;;5072318;28;20028;-87
2024/03/03 01:13:02;;;;;;;21.10;11.57;;;3.10;99.90;;;;;;5072250;28;20067;-87
2024/03/03 01:15:28;;;;;;;20.60;10.60;;;3.10;99.90;;;;;;5072051;28;20367;-87
2024/03/03 01:17:54;;;;;;;19.60;10.35;;;3.10;99.90;;;;;;5072442;28;20136;-87
2024/03/03 01:20:19;;;;;;;19.23;11.32;;;3.10;99.90;;;;;;5072314;28;20025;-87
2024/03/03 01:22:45;;;;;;;19.00;10.30;;;3.10;99.90;;;;;;5072666;28;20036;-87
2024/03/03 01:25:11;;;;;;;19.65;10.02;;;3.10;99.90;;;;;;5072416;28;20039;-87
2024/03/03 01:27:36;;;;;;;22.27;11.73;;;3.10;99.90;;;;;;5072798;28;20032;-88
2024/03/03 01:30:03;;;;;;;18.52;10.10;;;3.10;99.90;;;;;;5072139;28;20020;-88
2024/03/03 01:32:29;;;;;;;18.60;10.20;;;3.10;99.90;;;;;;5072065;28;20130;-87
2024/03/03 01:34:55;;;;;;;17.77;10.00;;;3.10;99.90;;;;;;5070742;28;20020;-87
2024/03/03 01:37:21;;;;;;;18.58;9.18;;;3.20;99.90;;;;;;5072176;28;20155;-87
2024/03/03 01:39:47;;;;;;;17.65;9.57;;;3.20;99.90;;;;;;5072057;28;20087;-88
2024/03/03 01:42:13;;;;;;;17.50;8.77;;;3.20;99.90;;;;;;5072201;28;20032;-87
2024/03/03 01:44:42;;;;;;;17.77;10.10;;;3.20;99.90;;;;;;5071859;28;20029;-88
2024/03/03 01:47:09;;;;;;;16.73;9.48;;;3.20;99.90;;;;;;5072087;28;20082;-88
2024/03/03 01:49:37;;;;;;;16.15;9.38;;;3.20;99.90;;;;;;5072236;28;20120;-87
2024/03/03 01:52:05;;;;;;;22.55;11.30;;;3.20;99.90;;;;;;5071705;28;20031;-87
2024/03/03 01:54:34;;;;;;;18.30;10.00;;;3.20;99.90;;;;;;5072080;28;20070;-87
2024/03/03 01:57:01;;;;;;;15.23;8.80;;;3.10;99.90;;;;;;5071885;28;20063;-87
2024/03/03 01:59:27;;;;;;;17.05;9.07;;;3.10;99.90;;;;;;5072195;28;20020;-88
2024/03/03 02:01:56;;;;;;;15.85;8.60;;;3.20;99.90;;;;;;5071856;28;20052;-88
2024/03/03 02:04:22;;;;;;;17.00;8.15;;;3.20;99.90;;;;;;5071893;28;20116;-87
2024/03/03 02:06:51;;;;;;;14.93;8.82;;;3.10;99.90;;;;;;5072206;28;20029;-87
2024/03/03 02:09:17;;;;;;;16.25;8.40;;;3.20;99.90;;;;;;5072386;28;20025;-87
2024/03/03 02:11:43;;;;;;;15.43;8.88;;;3.20;99.90;;;;;;5071971;28;20033;-87
2024/03/03 02:14:09;;;;;;;14.00;7.82;;;3.20;99.90;;;;;;5072509;28;20036;-88
2024/03/03 02:16:34;;;;;;;12.70;7.25;;;3.20;99.90;;;;;;5072386;28;20173;-88
2024/03/03 02:19:00;;;;;;;14.40;8.40;;;3.20;99.90;;;;;;5072039;28;20029;-87
2024/03/03 02:21:26;;;;;;;13.98;7.70;;;3.20;99.90;;;;;;5071589;28;20033;-87
2024/03/03 02:23:52;;;;;;;13.88;7.72;;;3.20;99.90;;;;;;5071692;28;20049;-87
2024/03/03 02:26:22;;;;;;;16.98;8.18;;;3.10;99.90;;;;;;5071208;28;20037;-87
2024/03/03 02:28:51;;;;;;;13.35;8.30;;;3.10;99.90;;;;;;5071534;28;20382;-87
2024/03/03 02:31:17;;;;;;;15.65;8.48;;;3.10;99.90;;;;;;5071610;28;20425;-87
2024/03/03 02:33:43;;;;;;;12.25;7.93;;;3.10;99.90;;;;;;5072801;28;20138;-87
2024/03/03 02:36:11;;;;;;;14.20;8.18;;;3.10;99.90;;;;;;5071349;28;20021;-87
2024/03/03 02:38:37;;;;;;;14.43;8.75;;;3.10;99.90;;;;;;5071203;28;20032;-87
2024/03/03 02:41:03;;;;;;;12.25;7.97;;;3.10;99.90;;;;;;5071061;28;20037;-87
2024/03/03 02:43:29;;;;;;;12.30;7.90;;;3.10;99.90;;;;;;5071178;28;20393;-87
2024/03/03 02:45:55;;;;;;;14.02;8.02;;;3.10;99.90;;;;;;5071084;28;20025;-87
2024/03/03 02:48:20;;;;;;;12.98;7.72;;;3.00;99.90;;;;;;5070490;28;20021;-87
2024/03/03 02:50:46;;;;;;;13.52;7.80;;;3.00;99.90;;;;;;5068131;28;20524;-87
2024/03/03 02:53:12;;;;;;;11.23;7.07;;;3.00;99.90;;;;;;5071183;28;20021;-88
2024/03/03 02:55:37;;;;;;;11.57;7.38;;;3.00;99.90;;;;;;5071230;28;20021;-87
2024/03/03 02:58:03;;;;;;;14.13;7.32;;;3.00;99.90;;;;;;5070961;28;20481;-87
2024/03/03 03:00:29;;;;;;;15.00;7.78;;;3.00;99.90;;;;;;5071011;28;20043;-87
2024/03/03 03:02:55;;;;;;;11.90;6.90;;;2.90;99.90;;;;;;5071229;28;20020;-87
2024/03/03 03:05:21;;;;;;;13.90;8.13;;;2.90;99.90;;;;;;5074333;28;20497;-87
2024/03/03 03:07:46;;;;;;;12.30;7.55;;;2.90;99.90;;;;;;5074570;28;20027;-87
2024/03/03 03:10:12;;;;;;;14.85;8.13;;;2.80;99.90;;;;;;5072086;28;20021;-87
2024/03/03 03:12:37;;;;;;;13.70;7.80;;;2.80;99.90;;;;;;5065502;28;20036;-87
2024/03/03 03:15:05;;;;;;;13.60;7.97;;;2.80;99.90;;;;;;5074372;28;20055;-87
2024/03/03 03:17:31;;;;;;;14.75;8.23;;;2.70;99.90;;;;;;5074208;28;20025;-87
2024/03/03 03:19:57;;;;;;;17.23;8.50;;;2.80;99.90;;;;;;5074130;28;20095;-86
2024/03/03 03:22:23;;;;;;;12.75;8.30;;;2.80;99.90;;;;;;5074164;28;20039;-87
2024/03/03 03:24:48;;;;;;;16.00;8.43;;;2.80;99.90;;;;;;5074253;28;20028;-87
2024/03/03 03:27:14;;;;;;;14.15;8.43;;;2.70;99.90;;;;;;5071810;28;20029;-87
2024/03/03 03:29:40;;;;;;;13.07;9.10;;;2.70;99.90;;;;;;5072345;28;20032;-87
2024/03/03 03:32:06;;;;;;;13.23;8.43;;;2.70;99.90;;;;;;5072517;28;20028;-87
2024/03/03 03:34:32;;;;;;;16.08;9.68;;;2.60;99.90;;;;;;5072365;28;20029;-87
2024/03/03 03:36:57;;;;;;;12.85;8.40;;;2.60;99.90;;;;;;5075007;28;20386;-87
2024/03/03 03:39:23;;;;;;;14.85;8.82;;;2.60;99.90;;;;;;5073705;28;20045;-87
2024/03/03 03:41:50;;;;;;;19.98;9.40;;;2.50;99.90;;;;;;5073899;28;20044;-87
2024/03/03 03:44:18;;;;;;;21.40;9.93;;;2.50;99.90;;;;;;5073830;28;20257;-87
2024/03/03 03:46:44;;;;;;;19.27;10.13;;;2.50;99.90;;;;;;5073984;28;20029;-87
2024/03/03 03:49:11;;;;;;;16.70;9.20;;;2.50;99.90;;;;;;5073690;28;20382;-87
2024/03/03 03:51:40;;;;;;;17.45;8.85;;;2.50;99.90;;;;;;5073802;28;20754;-88
2024/03/03 03:54:06;;;;;;;17.45;9.23;;;2.40;99.90;;;;;;5073701;28;20025;-88
2024/03/03 03:56:33;;;;;;;15.90;9.20;;;2.40;99.90;;;;;;5073947;28;20020;-88
2024/03/03 03:58:59;;;;;;;19.48;9.63;;;2.40;99.90;;;;;;5073812;28;20401;-87
2024/03/03 04:01:27;;;;;;;18.10;9.48;;;2.40;99.90;;;;;;5073405;28;20036;-85
2024/03/03 04:03:56;;;;;;;15.77;9.52;;;2.40;99.90;;;;;;5073232;28;20028;-86
2024/03/03 04:06:24;;;;;;;18.77;10.10;;;2.40;99.90;;;;;;5073253;28;20029;-86
2024/03/03 04:08:50;;;;;;;18.67;9.60;;;2.40;99.90;;;;;;5073080;28;20510;-86
2024/03/03 04:11:15;;;;;;;17.15;9.23;;;2.40;99.90;;;;;;5073166;28;20025;-87
2024/03/03 04:13:41;;;;;;;18.00;9.00;;;2.30;99.90;;;;;;5073173;28;20386;-86
2024/03/03 04:16:07;;;;;;;15.00;8.73;;;2.30;99.90;;;;;;5073157;28;20482;-87
2024/03/03 04:18:33;;;;;;;18.27;9.45;;;2.30;99.90;;;;;;5072934;28;20025;-86
2024/03/03 04:20:59;;;;;;;17.80;9.02;;;2.30;99.90;;;;;;5073022;28;20044;-86
2024/03/03 04:23:25;;;;;;;14.70;8.48;;;2.30;99.90;;;;;;5072840;28;20024;-86
2024/03/03 04:25:51;;;;;;;20.02;10.00;;;2.40;99.90;;;;;;5072973;28;20032;-86
2024/03/03 04:28:16;;;;;;;18.77;10.80;;;2.30;99.90;;;;;;5074125;28;20078;-86
2024/03/03 04:30:42;;;;;;;18.88;9.73;;;2.30;99.90;;;;;;5073021;28;20040;-86
2024/03/03 04:33:08;;;;;;;24.20;9.48;;;2.40;99.90;;;;;;5073940;28;20126;-86
2024/03/03 04:35:35;;;;;;;16.15;9.32;;;2.40;99.90;;;;;;5073036;28;20035;-86
2024/03/03 04:38:01;;;;;;;16.63;9.73;;;2.40;99.90;;;;;;5068569;28;20474;-86
2024/03/03 04:40:27;;;;;;;17.85;9.00;;;2.40;99.90;;;;;;5072490;28;20048;-87
2024/03/03 04:42:52;;;;;;;15.70;8.95;;;2.40;99.90;;;;;;5072645;28;20081;-87
2024/03/03 04:45:18;;;;;;;15.60;9.32;;;2.30;99.90;;;;;;5072721;28;20036;-88
2024/03/03 04:47:44;;;;;;;16.83;9.35;;;2.30;99.90;;;;;;5072675;28;20069;-86
2024/03/03 04:50:09;;;;;;;17.17;9.82;;;2.30;99.90;;;;;;5072637;28;20024;-87
2024/03/03 04:52:36;;;;;;;17.35;9.50;;;2.30;99.90;;;;;;5072665;28;20016;-88
2024/03/03 04:55:03;;;;;;;17.60;9.60;;;2.30;99.90;;;;;;5072513;28;20024;-88
2024/03/03 04:57:30;;;;;;;18.48;10.25;;;2.20;99.90;;;;;;5072439;28;20024;-88
2024/03/03 04:59:56;;;;;;;17.48;9.55;;;2.20;99.90;;;;;;5072102;28;20044;-87
2024/03/03 05:02:22;;;;;;;17.88;10.07;;;2.20;99.90;;;;;;5072733;28;20033;-88
2024/03/03 05:04:48;;;;;;;18.52;9.38;;;2.20;99.90;;;;;;5072517;28;20046;-88
2024/03/03 05:07:15;;;;;;;20.52;9.52;;;2.10;99.90;;;;;;5072173;28;20169;-88
2024/03/03 05:09:40;;;;;;;17.55;9.65;;;2.10;99.90;;;;;;5072280;28;20025;-88
2024/03/03 05:12:07;;;;;;;24.63;11.63;;;2.10;99.90;;;;;;5072457;28;20081;-88
2024/03/03 05:14:33;;;;;;;19.08;9.82;;;2.10;99.90;;;;;;5072538;28;20017;-88
2024/03/03 05:16:59;;;;;;;20.60;10.48;;;2.10;99.90;;;;;;5073260;28;20025;-87
2024/03/03 05:19:24;;;;;;;24.83;10.98;;;2.10;99.90;;;;;;5072084;28;20021;-88
2024/03/03 05:21:51;;;;;;;19.73;10.13;;;2.10;99.90;;;;;;5071915;28;20390;-88
2024/03/03 05:24:17;;;;;;;21.60;10.35;;;2.10;99.90;;;;;;5073086;28;20022;-87
2024/03/03 05:26:43;;;;;;;19.20;10.05;;;2.10;99.90;;;;;;5072582;28;20032;-88
2024/03/03 05:29:09;;;;;;;19.63;10.43;;;2.10;99.90;;;;;;5073391;28;20025;-88
2024/03/03 05:31:41;;;;;;;21.45;10.55;;;2.00;99.90;;;;;;5073050;28;20545;-88
2024/03/03 05:34:12;;;;;;;22.08;10.07;;;2.00;99.90;;;;;;5071818;28;20032;-88
2024/03/03 05:36:39;;;;;;;20.20;10.10;;;2.00;99.90;;;;;;5071828;28;20029;-88
2024/03/03 05:39:04;;;;;;;21.77;10.18;;;2.00;99.90;;;;;;5072777;28;20044;-88
2024/03/03 05:41:30;;;;;;;23.45;10.73;;;2.00;99.90;;;;;;5071873;28;20508;-87
2024/03/03 05:43:56;;;;;;;28.98;13.48;;;2.00;99.90;;;;;;5071506;28;20024;-87
2024/03/03 05:46:22;;;;;;;34.50;15.20;;;2.00;99.90;;;;;;5071855;28;20121;-88
2024/03/03 05:48:48;;;;;;;36.85;16.67;;;2.00;99.90;;;;;;5072796;28;20028;-88
2024/03/03 05:51:14;;;;;;;47.50;20.17;;;2.00;99.90;;;;;;5068186;28;20592;-88
2024/03/03 05:53:39;;;;;;;52.17;21.33;;;2.10;99.90;;;;;;5051660;28;20029;-87
2024/03/03 05:56:06;;;;;;;60.78;24.35;;;2.00;99.90;;;;;;5071087;28;20017;-88
2024/03/03 05:58:31;;;;;;;55.00;21.15;;;2.00;99.90;;;;;;5071480;28;20036;-87
2024/03/03 06:00:57;;;;;;;30.63;14.50;;;2.10;99.90;;;;;;5071670;28;20055;-88
2024/03/03 06:03:23;;;;;;;29.38;12.95;;;2.10;99.90;;;;;;5071505;28;20397;-88
2024/03/03 06:05:48;;;;;;;28.38;13.13;;;2.10;99.90;;;;;;5071727;28;20047;-85
2024/03/03 06:08:16;;;;;;;31.27;12.68;;;2.10;99.90;;;;;;5071755;28;20032;-88
2024/03/03 06:10:42;;;;;;;25.17;11.70;;;2.10;99.90;;;;;;5071746;28;20032;-87
2024/03/03 06:13:08;;;;;;;23.88;10.88;;;2.10;99.90;;;;;;5071519;28;20025;-87
2024/03/03 06:15:33;;;;;;;24.77;10.38;;;2.10;99.90;;;;;;5071446;28;20642;-88
2024/03/03 06:17:59;;;;;;;21.02;10.77;;;2.00;99.90;;;;;;5071032;28;20434;-88
2024/03/03 06:20:25;;;;;;;22.50;11.13;;;2.00;99.90;;;;;;5071258;28;20028;-86
2024/03/03 06:22:51;;;;;;;34.92;15.02;;;2.00;99.90;;;;;;5071496;28;20029;-87
2024/03/03 06:25:16;;;;;;;36.92;16.23;;;2.00;99.90;;;;;;5071250;28;20036;-85
2024/03/03 06:27:42;;;;;;;30.35;14.50;;;2.00;99.90;;;;;;5072496;28;20036;-85
2024/03/03 06:30:11;;;;;;;30.73;13.88;;;2.00;99.90;;;;;;5071345;28;20060;-86
2024/03/03 06:32:36;;;;;;;25.23;13.13;;;2.00;99.90;;;;;;5071456;28;20035;-88
2024/03/03 06:35:02;;;;;;;25.73;11.00;;;2.00;99.90;;;;;;5072531;28;20029;-88
2024/03/03 06:37:30;;;;;;;20.08;10.25;;;2.00;99.90;;;;;;5071166;28;20020;-87
2024/03/03 06:39:56;;;;;;;24.77;11.00;;;2.00;99.90;;;;;;5074031;28;20059;-86
2024/03/03 06:42:22;;;;;;;21.67;10.88;;;1.90;99.90;;;;;;5075097;28;20059;-86
2024/03/03 06:44:48;;;;;;;18.95;10.13;;;1.90;99.90;;;;;;5075178;28;20529;-86
2024/03/03 06:47:13;;;;;;;21.17;10.07;;;1.90;99.90;;;;;;5074920;28;20029;-86
2024/03/03 06:49:39;;;;;;;25.65;11.70;;;1.80;99.90;;;;;;5074935;28;20059;-86
2024/03/03 06:52:05;;;;;;;21.00;10.15;;;1.90;99.90;;;;;;5075016;28;20033;-87
2024/03/03 06:54:30;;;;;;;21.92;10.75;;;1.80;99.90;;;;;;5076294;28;20032;-87
2024/03/03 06:56:56;;;;;;;22.73;11.27;;;1.80;99.90;;;;;;5074898;28;20115;-86
2024/03/03 06:59:22;;;;;;;24.38;12.23;;;1.90;99.90;;;;;;5075104;28;20035;-88
2024/03/03 07:01:48;;;;;;;23.13;11.63;;;1.80;99.90;;;;;;5074767;28;20414;-86
2024/03/03 07:04:20;;;;;;;22.05;10.38;;;1.80;99.90;;;;;;5075039;28;20028;-86
2024/03/03 07:06:46;;;;;;;20.52;10.80;;;1.80;99.90;;;;;;5074822;28;20024;-86
2024/03/03 07:09:12;;;;;;;23.67;11.40;;;1.80;99.90;;;;;;5074180;28;20024;-86
2024/03/03 07:11:38;;;;;;;20.65;10.32;;;1.80;99.90;;;;;;5065355;28;20033;-87
2024/03/03 07:14:04;;;;;;;24.10;9.98;;;1.80;99.90;;;;;;5064311;28;20059;-87
2024/03/03 07:16:30;;;;;;;23.88;11.27;;;1.80;99.90;;;;;;5063991;28;20032;-87
2024/03/03 07:18:56;;;;;;;22.77;10.95;;;1.80;99.90;;;;;;5064151;28;20027;-88
2024/03/03 07:21:21;;;;;;;26.65;12.75;;;1.80;99.90;;;;;;5069576;28;20032;-87
2024/03/03 07:23:47;;;;;;;30.40;14.10;;;1.80;99.90;;;;;;5062900;28;20367;-88
2024/03/03 07:26:13;;;;;;;34.25;13.35;;;1.80;99.90;;;;;;5064846;28;20153;-87
2024/03/03 07:28:38;;;;;;;31.08;14.07;;;1.80;99.90;;;;;;5062425;28;20016;-88
2024/03/03 07:31:04;;;;;;;34.13;13.50;;;1.80;99.90;;;;;;5064991;28;20036;-87
2024/03/03 07:33:30;;;;;;;32.28;13.63;;;1.80;99.90;;;;;;5069027;28;20024;-88
2024/03/03 07:35:56;;;;;;;30.00;13.23;;;1.80;99.90;;;;;;5065376;28;20064;-88
2024/03/03 07:38:21;;;;;;;32.17;14.55;;;1.80;99.90;;;;;;5068420;28;20024;-88
2024/03/03 07:40:47;;;;;;;42.13;16.30;;;1.70;99.90;;;;;;5068399;28;20052;-88
2024/03/03 07:43:14;;;;;;;36.47;16.25;;;1.70;99.90;;;;;;5062698;28;20029;-88
2024/03/03 07:45:40;;;;;;;40.88;16.63;;;1.70;99.90;;;;;;5063640;28;20123;-88
2024/03/03 07:48:06;;;;;;;39.85;16.50;;;1.70;99.90;;;;;;5060862;28;20023;-87
2024/03/03 07:50:32;;;;;;;33.33;14.55;;;1.70;99.90;;;;;;5063974;28;20490;-88
2024/03/03 07:52:58;;;;;;;37.75;15.50;;;1.70;99.90;;;;;;5064266;28;20027;-87
2024/03/03 07:55:23;;;;;;;36.28;16.17;;;1.70;99.90;;;;;;5062914;28;20033;-87
2024/03/03 07:57:49;;;;;;;33.38;13.82;;;1.70;99.90;;;;;;5064636;28;20024;-88
2024/03/03 08:00:16;;;;;;;33.47;15.48;;;1.70;99.90;;;;;;5063328;28;20390;-88
2024/03/03 08:02:42;;;;;;;31.92;13.07;;;1.80;99.90;;;;;;5078577;28;20029;-87
2024/03/03 08:05:08;;;;;;;29.63;12.57;;;1.80;99.90;;;;;;5062657;28;20044;-89
2024/03/03 08:07:33;;;;;;;26.23;12.45;;;1.70;99.90;;;;;;5063186;28;20032;-88
2024/03/03 08:09:59;;;;;;;30.67;12.90;;;1.70;99.90;;;;;;5061061;28;20358;-88
2024/03/03 08:12:26;;;;;;;25.75;11.70;;;1.70;99.90;;;;;;5053978;28;20083;-88
2024/03/03 08:14:51;;;;;;;29.98;13.10;;;1.70;99.90;;;;;;5071580;28;20065;-87
2024/03/03 08:17:17;;;;;;;24.55;11.27;;;1.70;99.90;;;;;;5073922;28;20028;-88
2024/03/03 08:19:43;;;;;;;23.80;10.55;;;1.70;99.90;;;;;;5064751;28;20557;-87
2024/03/03 08:22:09;;;;;;;27.33;12.10;;;1.70;99.90;;;;;;5059979;28;20039;-88
2024/03/03 08:24:35;;;;;;;25.60;11.82;;;1.70;99.90;;;;;;5061500;28;20557;-88
2024/03/03 08:27:01;;;;;;;25.35;11.75;;;1.80;99.90;;;;;;5055253;28;20025;-88
2024/03/03 08:29:26;;;;;;;24.30;11.25;;;1.80;99.90;;;;;;5053578;28;20387;-88
2024/03/03 08:31:52;;;;;;;30.65;13.38;;;1.80;99.90;;;;;;5053580;28;20028;-89
2024/03/03 08:34:17;;;;;;;39.78;14.95;;;1.80;99.90;;;;;;5055562;28;20113;-89
2024/03/03 08:36:43;;;;;;;37.85;16.77;;;1.80;99.90;;;;;;5061890;28;20024;-89
2024/03/03 08:39:12;;;;;;;40.17;15.88;;;1.80;99.90;;;;;;5065525;28;20037;-88
2024/03/03 08:41:41;;;;;;;52.25;16.83;;;1.80;99.90;;;;;;5064700;28;20056;-88
2024/03/03 08:44:07;;;;;;;44.17;16.55;;;1.80;99.90;;;;;;5073342;28;20024;-88
2024/03/03 08:46:33;;;;;;;48.25;17.70;;;1.70;99.90;;;;;;5073158;28;20550;-88
2024/03/03 08:48:59;;;;;;;54.65;17.90;;;1.70;99.90;;;;;;5074238;28;20492;-94
2024/03/03 08:51:24;;;;;;;51.38;17.17;;;1.70;99.90;;;;;;5074245;28;20024;-90
2024/03/03 08:53:50;;;;;;;58.40;19.48;;;1.70;99.90;;;;;;5077307;28;20028;-88
2024/03/03 08:56:18;;;;;;;69.45;22.65;;;1.70;99.90;;;;;;5076227;28;20028;-90
2024/03/03 08:58:44;;;;;;;72.95;24.65;;;1.70;99.90;;;;;;5076069;28;20056;-90
2024/03/03 09:01:14;;;;;;;95.43;26.63;;;1.70;99.90;;;;;;5075400;28;20032;-91
2024/03/03 09:03:40;;;;;;;119.93;35.35;;;1.70;99.90;;;;;;5074487;28;20029;-91
2024/03/03 09:06:06;;;;;;;95.22;30.33;;;1.80;99.90;;;;;;5074288;28;20028;-90
2024/03/03 09:08:32;;;;;;;95.38;29.48;;;1.80;99.90;;;;;;5078599;28;20374;-91
2024/03/03 09:11:01;;;;;;;124.22;34.80;;;1.80;99.90;;;;;;5075043;28;20043;-91
2024/03/03 09:13:28;;;;;;;140.82;35.15;;;1.80;99.90;;;;;;5074682;28;20084;-90
2024/03/03 09:15:53;;;;;;;131.18;33.25;;;1.70;99.90;;;;;;5074562;28;20029;-91
2024/03/03 09:18:19;;;;;;;140.15;34.05;;;1.70;99.90;;;;;;5076721;28;20100;-91
2024/03/03 09:20:45;;;;;;;125.68;35.67;;;1.70;99.90;;;;;;5076002;28;20040;-91
2024/03/03 09:23:10;;;;;;;115.53;32.28;;;1.70;99.90;;;;;;5075769;28;20077;-91
2024/03/03 09:25:36;;;;;;;105.07;30.67;;;1.80;99.90;;;;;;5076391;28;20025;-91
2024/03/03 09:28:02;;;;;;;137.98;35.40;;;1.80;99.90;;;;;;5075029;28;20016;-91
2024/03/03 09:30:27;;;;;;;132.38;33.20;;;1.80;99.90;;;;;;5075198;28;20055;-91
2024/03/03 09:32:53;;;;;;;131.15;34.25;;;1.90;99.90;;;;;;5074884;28;20051;-90
2024/03/03 09:35:20;;;;;;;133.57;33.95;;;1.90;99.90;;;;;;5076885;28;20013;-90
2024/03/03 09:37:52;;;;;;;134.35;35.72;;;1.90;99.90;;;;;;5074791;28;20119;-90
2024/03/03 09:40:19;;;;;;;129.50;34.97;;;2.00;99.90;;;;;;5075265;28;20108;-91
2024/03/03 09:42:46;;;;;;;129.93;33.45;;;2.00;99.90;;;;;;5075930;28;20020;-91
2024/03/03 09:45:14;;;;;;;127.00;34.45;;;2.00;99.90;;;;;;5078009;28;20025;-92
2024/03/03 09:47:41;;;;;;;128.07;35.38;;;2.00;99.90;;;;;;5075330;28;20040;-90
2024/03/03 09:50:12;;;;;;;146.60;38.17;;;2.00;99.90;;;;;;5074430;28;20024;-91
2024/03/03 09:52:40;;;;;;;146.25;37.75;;;2.10;99.90;;;;;;5075023;28;20046;-90
2024/03/03 09:55:10;;;;;;;151.68;40.70;;;2.10;99.90;;;;;;5074255;28;20036;-90
2024/03/03 09:57:38;;;;;;;160.30;40.97;;;2.10;99.90;;;;;;5074274;28;20119;-91
2024/03/03 10:00:06;;;;;;;135.10;36.15;;;2.10;99.90;;;;;;5074788;28;20457;-90
2024/03/03 10:02:35;;;;;;;151.57;40.10;;;2.20;99.90;;;;;;5075469;28;20024;-89
2024/03/03 10:05:03;;;;;;;171.15;43.35;;;2.20;99.90;;;;;;5074451;28;20362;-91
2024/03/03 10:07:34;;;;;;;153.80;40.50;;;2.20;99.90;;;;;;5075200;28;20033;-90
2024/03/03 10:10:02;;;;;;;143.90;41.28;;;2.20;99.90;;;;;;5077571;28;20051;-89
2024/03/03 10:12:30;;;;;;;146.75;42.25;;;2.30;99.90;;;;;;5075086;28;20490;-91
2024/03/03 10:14:57;;;;;;;140.07;39.08;;;2.30;99.90;;;;;;5079417;28;20050;-90
2024/03/03 10:17:24;;;;;;;127.20;35.65;;;2.30;99.90;;;;;;5079372;28;20037;-89
2024/03/03 10:19:49;;;;;;;111.60;30.55;;;2.30;99.90;;;;;;5078393;28;20469;-90
2024/03/03 10:22:20;;;;;;;97.13;28.77;;;2.40;99.90;;;;;;5078710;28;20131;-90
2024/03/03 10:24:46;;;;;;;107.68;31.67;;;2.40;99.90;;;;;;5081192;28;20021;-90
2024/03/03 10:27:16;;;;;;;107.20;30.55;;;2.50;99.90;;;;;;5082501;28;20039;-89
2024/03/03 10:29:47;;;;;;;108.80;29.38;;;2.50;99.90;;;;;;5082493;28;20027;-91
2024/03/03 10:32:13;;;;;;;104.45;30.80;;;2.60;99.90;;;;;;5079722;28;20043;-89
2024/03/03 10:34:39;;;;;;;90.57;26.10;;;2.70;99.90;;;;;;5084089;28;20024;-90
2024/03/03 10:37:05;;;;;;;93.53;26.58;;;2.70;99.90;;;;;;5081562;28;20024;-89
2024/03/03 10:39:35;;;;;;;120.38;31.15;;;2.80;99.90;;;;;;5080647;28;20044;-90
2024/03/03 10:42:09;;;;;;;104.83;29.97;;;2.80;99.90;;;;;;5079385;28;20485;-90
2024/03/03 10:44:35;;;;;;;85.07;25.30;;;2.80;99.90;;;;;;5080583;28;20282;-90
2024/03/03 10:47:01;;;;;;;79.88;25.05;;;2.90;99.90;;;;;;5079427;28;20062;-90
2024/03/03 10:49:28;;;;;;;84.95;26.13;;;3.00;99.90;;;;;;5083660;28;20100;-89
2024/03/03 10:51:59;;;;;;;80.93;26.17;;;3.10;99.90;;;;;;5090128;28;20031;-89
2024/03/03 10:54:26;;;;;;;91.40;27.38;;;3.20;99.90;;;;;;5087423;28;20029;-88
2024/03/03 10:56:53;;;;;;;91.63;28.40;;;3.30;99.90;;;;;;5088884;28;20021;-90
2024/03/03 10:59:21;;;;;;;87.07;26.70;;;3.30;99.90;;;;;;5086461;28;20180;-91
2024/03/03 11:01:48;;;;;;;92.78;28.42;;;3.40;99.90;;;;;;5078404;28;20370;-89
2024/03/03 11:04:16;;;;;;;73.22;23.23;;;3.50;99.90;;;;;;5079730;28;20064;-91
2024/03/03 11:06:45;;;;;;;73.32;22.08;;;3.60;99.90;;;;;;5077314;28;20111;-90
2024/03/03 11:09:12;;;;;;;42.30;14.82;;;3.70;99.90;;;;;;5077432;28;20032;-92
2024/03/03 11:11:47;;;;;;;51.33;17.63;;;3.70;99.90;;;;;;5077885;28;20047;-89
2024/03/03 11:14:14;;;;;;;45.80;15.45;;;3.80;99.90;;;;;;5077565;28;20485;-91
2024/03/03 11:16:48;;;;;;;44.67;15.98;;;3.90;99.90;;;;;;5077665;28;20119;-90
2024/03/03 11:19:22;;;;;;;56.75;20.15;;;4.00;99.90;;;;;;5077092;28;20032;-90
2024/03/03 11:21:54;;;;;;;37.53;13.80;;;4.10;99.90;;;;;;5078043;28;20043;-91
2024/03/03 11:24:31;;;;;;;42.25;15.05;;;4.20;99.90;;;;;;5078409;28;20127;-90
2024/03/03 11:27:13;;;;;;;66.20;22.55;;;4.40;99.90;;;;;;5079530;28;20028;-90
2024/03/03 11:29:42;;;;;;;52.45;18.75;;;4.50;99.90;;;;;;5078668;28;20488;-89
2024/03/03 11:32:11;;;;;;;50.17;17.30;;;4.70;99.90;;;;;;5078879;28;20056;-90
2024/03/03 11:34:38;;;;;;;46.53;16.85;;;4.80;99.90;;;;;;5077978;28;20476;-89
2024/03/03 11:37:04;;;;;;;56.42;20.17;;;4.90;99.90;;;;;;5078059;28;20021;-90
2024/03/03 11:39:31;;;;;;;56.65;19.85;;;5.00;99.90;;;;;;5077933;28;20097;-89
2024/03/03 11:41:58;;;;;;;46.45;17.75;;;5.20;99.90;;;;;;5077190;28;20032;-89
2024/03/03 11:44:36;;;;;;;56.97;21.50;;;5.40;99.90;;;;;;5085913;28;20035;-88
2024/03/03 11:47:05;;;;;;;53.45;20.17;;;5.60;99.90;;;;;;5096498;28;20021;-89
2024/03/03 11:49:43;;;;;;;43.75;19.08;;;6.10;99.90;;;;;;5097478;28;20054;-89
2024/03/03 11:52:10;;;;;;;41.55;16.60;;;6.50;99.90;;;;;;5096222;28;20046;-88
2024/03/03 11:54:41;;;;;;;42.50;17.10;;;7.00;99.90;;;;;;5096750;28;20024;-89
2024/03/03 11:57:09;;;;;;;51.92;21.95;;;7.50;99.90;;;;;;5087593;28;20119;-90
2024/03/03 11:59:43;;;;;;;45.00;18.15;;;7.90;99.90;;;;;;5080794;28;20016;-90
2024/03/03 12:02:20;;;;;;;43.13;17.23;;;8.20;99.90;;;;;;5082015;28;20047;-89
2024/03/03 12:04:46;;;;;;;42.97;18.65;;;8.60;99.90;;;;;;5083882;28;20017;-90
2024/03/03 12:07:18;;;;;;;42.45;18.48;;;8.80;99.90;;;;;;5083186;28;20100;-90
2024/03/03 12:09:44;;;;;;;44.60;19.20;;;9.00;99.90;;;;;;5084202;28;20346;-90
2024/03/03 12:12:10;;;;;;;52.45;20.77;;;9.20;99.90;;;;;;5080145;28;20447;-89
2024/03/03 12:14:40;;;;;;;50.83;22.10;;;9.40;99.90;;;;;;5082276;28;20047;-90
2024/03/03 12:17:06;;;;;;;47.75;21.08;;;9.40;99.90;;;;;;5081535;28;20025;-90
2024/03/03 12:19:33;;;;;;;50.42;21.25;;;9.50;99.90;;;;;;5078169;28;20103;-90
2024/03/03 12:21:59;;;;;;;52.38;23.27;;;9.50;99.90;;;;;;5076762;28;20086;-89
2024/03/03 12:24:25;;;;;;;50.45;22.30;;;9.50;99.90;;;;;;5077118;28;20024;-89
2024/03/03 12:26:51;;;;;;;54.28;24.58;;;9.50;99.90;;;;;;5078464;28;20036;-89
2024/03/03 12:29:17;;;;;;;51.13;22.63;;;9.40;99.90;;;;;;5076774;28;20017;-89
2024/03/03 12:31:43;;;;;;;52.35;23.17;;;9.30;99.90;;;;;;5078914;28;20024;-90
2024/03/03 12:34:08;;;;;;;55.20;23.88;;;9.30;99.90;;;;;;5082296;28;20020;-88